• Join FlightAware (Why Join?)
  • Login
  • US Flag 
01:11PM EDT


 

Airport Tracker/Info


-or-


 

Live Flight TrackerFlight Track Log ✈ N44566 ✈ 06-Jun-2014

Flight Track Log - Related Links

Times and Time Zones

All times are in EDT time to prevent confusion due to time zone crossing. See the N44566 flight status page for this flight to view local times or setup timezone preferences in your user account.

Time Position Orientation Groundspeed Altitude Reporting Facility
EDT Latitude Longitude Course Direction KTS MPH feet Rate Location/Type
07:15PM 39.6619 -74.1067 29° Northeast 86 99 7,700  Level New York Center
07:16PM 39.6833 -74.0914 29° Northeast 86 99 7,600 -60 Descending New York Center
07:17PM 39.7047 -74.0736 33° Northeast 93 107 7,600  Level New York Center
07:18PM 39.7261 -74.0503 40° Northeast 88 101 7,600  Level New York Center
07:19PM 39.7436 -74.0294 42° Northeast 83 96 7,700  Climbing New York Center
07:19PM 39.7628 -74.0114 36° Northeast 83 96 7,700  Level New York Center
07:21PM 39.7839 -73.9989 24° Northeast 88 101 7,700 -60 Level New York Center
07:21PM 39.8053 -73.9836 29° Northeast 88 101 7,600 -60 Descending New York Center
07:23PM 39.8286 -73.9686 26° Northeast 88 101 7,600  Level New York Center
07:23PM 39.8519 -73.9533 27° Northeast 88 101 7,700  Climbing New York Center
07:25PM 39.8711 -73.9328 39° Northeast 88 101 7,700 -60 Level New York Center
07:26PM 39.8906 -73.9147 35° Northeast 88 101 7,600 -60 Descending New York Center
07:27PM 39.9078 -73.8856 52° Northeast 88 101 7,600  Level New York Center
07:28PM 39.9253 -73.8619 46° Northeast 88 101 7,700  Climbing New York Center
07:28PM 39.9425 -73.8411 43° Northeast 88 101 7,600 -60 Descending New York Center
07:30PM 39.9636 -73.8311 20° North 83 96 7,600  Level New York Center
07:31PM 39.9867 -73.8214 18° North 83 96 7,600  Level New York Center
07:32PM 40.0100 -73.8061 27° Northeast 83 96 7,600  Level New York Center
07:33PM 40.0272 -73.7881 39° Northeast 83 96 7,600  Level New York Center
07:34PM 40.0506 -73.7728 27° Northeast 83 96 7,600  Level New York Center
07:35PM 40.0675 -73.7544 40° Northeast 83 96 7,600  Level New York Center
07:36PM 40.0931 -73.7339 32° Northeast 83 96 7,600  Level New York Center
07:37PM 40.1122 -73.7211 27° Northeast 83 96 7,600 -60 Level New York Center
07:37PM 40.1333 -73.7167 North 84 97 7,500  Descending New York TRACON
07:38PM 40.1500 -73.7000 37° Northeast 90 104 7,600 60 Climbing New York TRACON
07:39PM 40.1833 -73.7000 360° North 88 101 7,700  Climbing New York TRACON
07:40PM 40.2000 -73.6833 37° Northeast 87 100 7,700  Level New York TRACON
07:41PM 40.2167 -73.6500 57° Northeast 98 113 7,700 -60 Level New York TRACON
07:43PM 40.2500 -73.6333 21° North 98 113 7,600  Descending New York TRACON
07:43PM 40.2667 -73.6167 37° Northeast 89 102 7,800  Climbing New York TRACON
07:44PM 40.2833 -73.6167 360° North 93 107 7,700 -60 Descending New York TRACON
07:45PM 40.3167 -73.6000 21° North 94 108 7,700  Level New York TRACON
07:46PM 40.3333 -73.5833 37° Northeast 91 105 7,700  Level New York TRACON
07:47PM 40.3500 -73.5500 57° Northeast 95 109 7,700  Level New York TRACON
07:48PM 40.3667 -73.5333 37° Northeast 92 106 7,800 60 Climbing New York TRACON
07:49PM 40.3833 -73.5000 57° Northeast 97 112 7,900  Climbing New York TRACON
07:50PM 40.3833 -73.4667 90° East 99 114 7,800 -120 Descending New York TRACON
07:51PM 40.4167 -73.4500 21° North 96 110 7,700 -120 Descending New York TRACON
07:52PM 40.4167 -73.4167 90° East 103 119 7,600 -60 Descending New York TRACON
07:53PM 40.4333 -73.3833 57° Northeast 98 113 7,600  Level New York TRACON
07:54PM 40.4500 -73.3667 37° Northeast 95 109 7,600  Level New York TRACON
07:55PM 40.4667 -73.3333 57° Northeast 90 104 7,700 60 Climbing New York TRACON
07:56PM 40.4833 -73.3333 360° North 79 91 7,800 -420 Climbing New York TRACON
07:57PM 40.5000 -73.3333 360° North 88 101 6,900 -1,140 Descending New York TRACON
07:58PM 40.5167 -73.2833 66° East 106 122 5,600 -1,320 Descending New York TRACON
07:59PM 40.5333 -73.2667 37° Northeast 105 121 4,300 -1,320 Descending New York TRACON
08:01PM 40.5580 -73.2851 330° Northwest  Level Estimated
08:08PM 40.7197 -73.4066 330° Northwest  Level Estimated
08:09PM 40.7288 -73.4134 121° Southeast  Level Estimated
08:10PM 40.7288 -73.4134 140° Southeast  Level Estimated
08:11PM 40.7288 -73.4134 30° Northeast  Level Estimated
08:12PM 40.7288 -73.4134 140° Southeast  Level Estimated